Time;durP1;ratioP1;P1;durP2;ratioP2;P2;SDS_P1;SDS_P2;PMS_P1;PMS_P2;Temp;Humidity;BMP_temperature;BMP_pressure;BME280_temperature;BME280_humidity;BME280_pressure;Samples;Min_cycle;Max_cycle;Signal;HPM_P1;HPM_P2
2022/07/16 00:03:28;;;;;;;;;;;;;;;15.06;95.16;99405.42;1751480;81;20153;-68
2022/07/16 00:05:54;;;;;;;;;;;;;;;15.01;95.08;99408.31;1749714;81;21918;-68
2022/07/16 00:08:21;;;;;;;;;;;;;;;14.97;94.98;99406.84;1748922;81;20180;-68
2022/07/16 00:10:48;;;;;;;;;;;;;;;14.92;94.92;99410.66;1747895;81;20236;-69
2022/07/16 00:13:16;;;;;;;;;;;;;;;14.87;94.94;99407.00;1748734;81;20172;-68
2022/07/16 00:15:43;;;;;;;;;;;;;;;14.83;95.21;99412.03;1749904;81;20405;-68
2022/07/16 00:20:54;;;;;;;;;;;;;;;14.79;95.82;99415.77;1751019;81;20410;-68
2022/07/16 00:23:21;;;;;;;;;;;;;;;14.77;96.03;99413.73;1750882;81;20204;-68
2022/07/16 00:25:47;;;;;;;;;;;;;;;14.75;96.22;99418.22;1751075;81;20675;-68
2022/07/16 00:28:13;;;;;;;;;;;;;;;14.73;96.38;99418.30;1752354;81;20173;-69
2022/07/16 00:30:40;;;;;;;;;;;;;;;14.70;96.46;99413.71;1750731;81;21154;-68
2022/07/16 00:33:06;;;;;;;;;;;;;;;14.68;96.39;99414.27;1749803;81;20145;-68
2022/07/16 00:35:33;;;;;;;;;;;;;;;14.63;96.39;99409.76;1748154;81;20173;-68
2022/07/16 00:37:59;;;;;;;;;;;;;;;14.60;96.35;99411.24;1748471;81;20141;-68
2022/07/16 00:40:26;;;;;;;;;;;;;;;14.55;96.53;99415.93;1751477;81;20137;-68
2022/07/16 00:42:52;;;;;;;;;;;;;;;14.51;96.91;99413.95;1746831;81;21087;-68
2022/07/16 00:45:19;;;;;;;;;;;;;;;14.46;97.14;99408.98;1749934;81;20416;-68
2022/07/16 00:47:45;;;;;;;;;;;;;;;14.42;97.35;99416.63;1748935;81;20211;-68
2022/07/16 00:50:12;;;;;;;;;;;;;;;14.37;97.35;99409.50;1746867;81;20291;-68
2022/07/16 00:52:39;;;;;;;;;;;;;;;14.32;97.40;99410.22;1751129;81;20413;-68
2022/07/16 00:55:06;;;;;;;;;;;;;;;14.27;97.68;99412.25;1749912;81;21153;-68
2022/07/16 00:57:33;;;;;;;;;;;;;;;14.23;98.17;99418.58;1748858;81;20157;-68
2022/07/16 00:59:59;;;;;;;;;;;;;;;14.17;98.23;99414.19;1751301;81;20416;-68
2022/07/16 01:02:26;;;;;;;;;;;;;;;14.12;98.25;99415.75;1750497;81;20157;-68
2022/07/16 01:04:52;;;;;;;;;;;;;;;14.06;98.22;99419.55;1749452;81;20164;-68
2022/07/16 01:07:18;;;;;;;;;;;;;;;14.00;98.39;99421.19;1750707;81;21259;-68
2022/07/16 01:09:46;;;;;;;;;;;;;;;13.95;98.54;99431.09;1748662;80;20200;-68
2022/07/16 01:12:12;;;;;;;;;;;;;;;13.90;98.74;99427.03;1748274;81;20142;-68
2022/07/16 01:14:38;;;;;;;;;;;;;;;13.83;99.07;99425.21;1752074;81;20476;-68
2022/07/16 01:17:06;;;;;;;;;;;;;;;13.80;99.28;99429.30;1751911;81;20165;-68
2022/07/16 01:19:32;;;;;;;;;;;;;;;13.76;99.46;99430.42;1749425;81;21170;-68
2022/07/16 01:21:59;;;;;;;;;;;;;;;13.72;99.59;99429.73;1751417;81;20142;-68
2022/07/16 01:24:25;;;;;;;;;;;;;;;13.68;99.77;99422.98;1750841;81;20189;-68
2022/07/16 01:26:52;;;;;;;;;;;;;;;13.68;100.00;99432.59;1746874;81;20134;-68
2022/07/16 01:29:19;;;;;;;;;;;;;;;13.67;100.00;99423.91;1749724;81;20125;-68
2022/07/16 01:31:46;;;;;;;;;;;;;;;13.67;100.00;99430.45;1751831;82;21059;-68
2022/07/16 01:34:25;;;;;;;;;;;;;;;13.65;100.00;99426.23;1750344;81;20182;-68
2022/07/16 01:37:07;;;;;;;;;;;;;;;13.61;100.00;99425.55;1750347;81;20425;-68
2022/07/16 01:39:35;;;;;;;;;;;;;;;13.57;100.00;99431.89;1748406;81;20421;-68
2022/07/16 01:42:03;;;;;;;;;;;;;;;13.53;100.00;99429.05;1747093;81;20428;-68
2022/07/16 01:44:31;;;;;;;;;;;;;;;13.51;100.00;99430.91;1749915;81;21135;-68
2022/07/16 01:46:58;;;;;;;;;;;;;;;13.50;100.00;99431.83;1746355;81;20172;-68
2022/07/16 01:49:24;;;;;;;;;;;;;;;13.48;100.00;99436.29;1750807;81;20140;-68
2022/07/16 01:51:51;;;;;;;;;;;;;;;13.46;100.00;99434.22;1748659;81;20263;-68
2022/07/16 01:54:17;;;;;;;;;;;;;;;13.45;100.00;99433.84;1745845;81;20448;-68
2022/07/16 01:56:43;;;;;;;;;;;;;;;13.43;100.00;99431.77;1748510;81;21135;-68
2022/07/16 01:59:10;;;;;;;;;;;;;;;13.42;100.00;99428.77;1747068;80;20247;-68
2022/07/16 02:01:36;;;;;;;;;;;;;;;13.41;100.00;99432.31;1751943;81;20164;-68
2022/07/16 02:04:03;;;;;;;;;;;;;;;13.38;100.00;99432.03;1753216;81;20153;-68
2022/07/16 02:06:30;;;;;;;;;;;;;;;13.34;100.00;99430.97;1752218;81;20268;-68
2022/07/16 02:08:56;;;;;;;;;;;;;;;13.30;100.00;99434.20;1747559;80;21171;-68
2022/07/16 02:11:23;;;;;;;;;;;;;;;13.27;100.00;99434.83;1747141;81;20145;-68
2022/07/16 02:13:50;;;;;;;;;;;;;;;13.24;100.00;99433.21;1747770;81;20223;-68
2022/07/16 02:16:16;;;;;;;;;;;;;;;13.22;100.00;99440.74;1750952;81;20271;-68
2022/07/16 02:18:42;;;;;;;;;;;;;;;13.19;100.00;99435.22;1750592;80;20138;-68
2022/07/16 02:21:09;;;;;;;;;;;;;;;13.19;100.00;99435.70;1751779;82;21983;-68
2022/07/16 02:23:35;;;;;;;;;;;;;;;13.19;100.00;99439.13;1749424;81;20180;-68
2022/07/16 02:26:01;;;;;;;;;;;;;;;13.26;100.00;99438.36;1749391;81;20145;-68
2022/07/16 02:28:28;;;;;;;;;;;;;;;13.37;100.00;99440.80;1750418;81;20255;-68
2022/07/16 02:30:55;;;;;;;;;;;;;;;13.48;100.00;99434.98;1747900;80;20161;-68
2022/07/16 02:33:23;;;;;;;;;;;;;;;13.62;100.00;99430.31;1746048;81;21135;-68
2022/07/16 02:35:49;;;;;;;;;;;;;;;13.83;100.00;99433.52;1747829;81;20145;-67
2022/07/16 02:38:15;;;;;;;;;;;;;;;14.08;100.00;99434.69;1749522;81;20420;-68
2022/07/16 02:40:42;;;;;;;;;;;;;;;14.41;100.00;99431.95;1751302;81;20161;-68
2022/07/16 02:43:09;;;;;;;;;;;;;;;14.77;99.57;99438.61;1744991;81;20436;-68
2022/07/16 02:45:37;;;;;;;;;;;;;;;15.13;98.47;99428.55;1751238;81;21123;-68
2022/07/16 02:48:05;;;;;;;;;;;;;;;15.55;96.71;99428.15;1753750;80;20169;-68
2022/07/16 02:50:31;;;;;;;;;;;;;;;15.98;94.25;99424.16;1750093;81;20137;-68
2022/07/16 02:52:59;;;;;;;;;;;;;;;16.42;92.04;99423.39;1747765;81;20425;-68
2022/07/16 02:55:26;;;;;;;;;;;;;;;16.86;89.45;99428.33;1747417;81;20446;-68
2022/07/16 02:57:53;;;;;;;;;;;;;;;17.30;87.04;99423.13;1751241;81;21140;-68
2022/07/16 03:00:19;;;;;;;;;;;;;;;17.73;84.48;99418.81;1750307;81;20169;-68
2022/07/16 03:02:46;;;;;;;;;;;;;;;18.13;82.08;99417.61;1753620;81;20189;-69
2022/07/16 03:05:12;;;;;;;;;;;;;;;18.56;79.70;99422.33;1748946;80;20141;-69
2022/07/16 03:07:38;;;;;;;;;;;;;;;18.97;77.26;99427.60;1749006;81;20413;-69
2022/07/16 03:10:07;;;;;;;;;;;;;;;19.40;74.80;99427.25;1752324;81;21117;-69
2022/07/16 03:12:35;;;;;;;;;;;;;;;19.81;72.59;99426.64;1752145;81;20144;-69
2022/07/16 03:15:02;;;;;;;;;;;;;;;20.22;70.42;99435.17;1749585;81;20401;-69
2022/07/16 03:17:29;;;;;;;;;;;;;;;20.64;68.28;99438.75;1746411;81;20146;-69
2022/07/16 03:19:56;;;;;;;;;;;;;;;21.03;66.73;99439.00;1750003;81;20192;-69
2022/07/16 03:22:22;;;;;;;;;;;;;;;21.47;65.02;99437.02;1748397;81;21140;-69
2022/07/16 03:24:49;;;;;;;;;;;;;;;21.82;63.15;99433.44;1751134;81;20134;-69
2022/07/16 03:27:15;;;;;;;;;;;;;;;22.12;61.86;99433.89;1748712;81;20164;-69
2022/07/16 03:29:42;;;;;;;;;;;;;;;22.42;60.53;99433.40;1750722;81;20128;-69
2022/07/16 03:32:08;;;;;;;;;;;;;;;22.68;59.37;99430.05;1747066;81;20149;-69
2022/07/16 03:34:35;;;;;;;;;;;;;;;22.95;58.50;99437.30;1748015;81;21686;-69
2022/07/16 03:37:02;;;;;;;;;;;;;;;23.32;57.48;99437.82;1752584;81;20409;-69
2022/07/16 03:39:28;;;;;;;;;;;;;;;23.69;56.54;99436.50;1752096;81;20141;-69
2022/07/16 03:41:55;;;;;;;;;;;;;;;24.08;55.29;99438.43;1751193;81;20141;-69
2022/07/16 03:44:22;;;;;;;;;;;;;;;24.42;53.56;99444.43;1749974;81;20412;-69
2022/07/16 03:46:48;;;;;;;;;;;;;;;24.57;52.72;99440.27;1752085;81;21090;-69
2022/07/16 03:49:14;;;;;;;;;;;;;;;24.79;52.21;99440.25;1751554;81;20157;-70
2022/07/16 03:51:41;;;;;;;;;;;;;;;25.11;51.29;99441.02;1751975;81;20465;-69
2022/07/16 03:54:07;;;;;;;;;;;;;;;25.35;50.09;99436.68;1750274;81;20129;-69
2022/07/16 03:56:33;;;;;;;;;;;;;;;25.58;49.52;99441.45;1751482;80;20440;-69
2022/07/16 03:58:59;;;;;;;;;;;;;;;25.79;48.51;99441.03;1745625;81;21275;-69
2022/07/16 04:01:26;;;;;;;;;;;;;;;26.00;48.03;99442.27;1748023;81;20165;-69
2022/07/16 04:03:54;;;;;;;;;;;;;;;26.19;47.13;99440.31;1748030;81;20444;-69
2022/07/16 04:06:21;;;;;;;;;;;;;;;26.30;46.95;99444.05;1746703;81;20153;-69
2022/07/16 04:08:47;;;;;;;;;;;;;;;26.51;46.30;99443.56;1751531;81;20141;-69
2022/07/16 04:11:14;;;;;;;;;;;;;;;26.64;45.98;99443.39;1750474;81;20590;-69
2022/07/16 04:13:41;;;;;;;;;;;;;;;26.86;45.62;99442.39;1754981;81;20503;-69
2022/07/16 04:16:09;;;;;;;;;;;;;;;27.16;44.81;99443.56;1749127;81;20137;-69
2022/07/16 04:18:36;;;;;;;;;;;;;;;27.44;44.22;99444.30;1749151;81;20492;-69
2022/07/16 04:21:04;;;;;;;;;;;;;;;27.64;43.65;99442.08;1751392;81;20169;-69
2022/07/16 04:23:31;;;;;;;;;;;;;;;27.78;43.37;99446.69;1750875;81;20630;-70
2022/07/16 04:25:57;;;;;;;;;;;;;;;27.97;42.90;99453.47;1749947;81;20177;-70
2022/07/16 04:28:24;;;;;;;;;;;;;;;28.16;42.23;99444.17;1746420;81;20559;-70
2022/07/16 04:30:50;;;;;;;;;;;;;;;28.39;41.71;99450.88;1748024;81;20113;-69
2022/07/16 04:33:16;;;;;;;;;;;;;;;28.59;41.03;99452.57;1749916;81;20471;-70
2022/07/16 04:35:42;;;;;;;;;;;;;;;28.70;40.44;99449.48;1747737;81;21510;-69
2022/07/16 04:38:10;;;;;;;;;;;;;;;28.86;40.20;99453.89;1750747;81;20125;-70
2022/07/16 04:40:38;;;;;;;;;;;;;;;29.11;39.47;99453.99;1748850;81;20177;-70
2022/07/16 04:43:05;;;;;;;;;;;;;;;29.21;39.02;99458.56;1745677;81;20253;-70
2022/07/16 04:45:31;;;;;;;;;;;;;;;29.23;38.53;99455.20;1751204;81;20459;-70
2022/07/16 04:47:59;;;;;;;;;;;;;;;29.22;38.65;99446.83;1752078;81;21865;-70
2022/07/16 04:50:25;;;;;;;;;;;;;;;29.38;38.36;99452.52;1750051;81;20141;-70
2022/07/16 04:52:51;;;;;;;;;;;;;;;29.57;37.96;99439.95;1747153;81;20170;-70
2022/07/16 04:55:18;;;;;;;;;;;;;;;29.79;37.48;99438.14;1750674;81;20258;-70
2022/07/16 04:57:44;;;;;;;;;;;;;;;30.01;37.28;99443.08;1752039;81;20469;-70
2022/07/16 05:00:13;;;;;;;;;;;;;;;30.18;36.73;99439.68;1748299;81;20142;-70
2022/07/16 05:02:58;;;;;;;;;;;;;;;30.08;34.74;99443.48;1754386;81;20145;-70
2022/07/16 05:05:30;;;;;;;;;;;;;;;29.84;35.12;99442.44;1745957;81;20140;-70
2022/07/16 05:07:56;;;;;;;;;;;;;;;29.80;35.28;99446.00;1751437;81;20121;-70
2022/07/16 05:10:24;;;;;;;;;;;;;;;29.62;35.71;99450.93;1746669;81;20425;-70
2022/07/16 05:12:52;;;;;;;;;;;;;;;29.60;36.01;99455.64;1748499;80;21107;-70
2022/07/16 05:15:18;;;;;;;;;;;;;;;29.50;35.85;99458.30;1748793;81;20141;-70
2022/07/16 05:17:45;;;;;;;;;;;;;;;29.46;36.44;99447.94;1751872;81;20085;-70
2022/07/16 05:20:11;;;;;;;;;;;;;;;29.63;35.24;99453.94;1749660;80;20173;-70
2022/07/16 05:22:38;;;;;;;;;;;;;;;29.59;35.62;99461.19;1750079;81;20133;-70
2022/07/16 05:25:06;;;;;;;;;;;;;;;29.73;35.75;99454.49;1748380;82;21799;-70
2022/07/16 05:27:34;;;;;;;;;;;;;;;29.96;35.39;99448.17;1749017;81;20224;-68
2022/07/16 05:30:01;;;;;;;;;;;;;;;30.19;34.96;99451.53;1749336;81;20242;-68
2022/07/16 05:32:27;;;;;;;;;;;;;;;30.29;34.91;99448.05;1748080;81;20177;-68
2022/07/16 05:34:54;;;;;;;;;;;;;;;30.38;34.16;99443.37;1751397;80;20161;-69
2022/07/16 05:37:20;;;;;;;;;;;;;;;30.21;33.99;99437.93;1748259;81;21199;-69
2022/07/16 05:39:47;;;;;;;;;;;;;;;30.07;33.92;99443.16;1745186;81;20205;-68
2022/07/16 05:42:13;;;;;;;;;;;;;;;29.86;34.32;99448.96;1750283;81;20157;-69
2022/07/16 05:44:41;;;;;;;;;;;;;;;29.76;34.74;99445.25;1751844;81;20145;-68
2022/07/16 05:47:07;;;;;;;;;;;;;;;29.77;34.44;99446.91;1751102;81;20435;-68
2022/07/16 05:49:34;;;;;;;;;;;;;;;29.77;34.55;99446.41;1751207;81;21132;-69
2022/07/16 05:52:00;;;;;;;;;;;;;;;29.65;34.51;99441.18;1748540;80;20161;-68
2022/07/16 05:54:27;;;;;;;;;;;;;;;29.63;34.83;99440.53;1746278;81;20159;-67
2022/07/16 05:56:54;;;;;;;;;;;;;;;29.63;34.74;99433.83;1744834;81;20137;-68
2022/07/16 05:59:20;;;;;;;;;;;;;;;29.44;35.08;99447.29;1747540;81;20145;-68
2022/07/16 06:01:46;;;;;;;;;;;;;;;29.24;34.91;99443.47;1747421;81;21183;-68
2022/07/16 06:04:13;;;;;;;;;;;;;;;29.12;35.31;99443.09;1729695;81;20145;-68
2022/07/16 06:06:40;;;;;;;;;;;;;;;28.99;35.32;99440.70;1750124;81;20141;-68
2022/07/16 06:09:08;;;;;;;;;;;;;;;28.74;35.52;99443.59;1751421;81;20176;-69
2022/07/16 06:11:34;;;;;;;;;;;;;;;28.43;36.28;99441.49;1753203;81;20141;-69
2022/07/16 06:14:00;;;;;;;;;;;;;;;28.19;36.49;99442.45;1749830;81;21098;-69
2022/07/16 06:16:27;;;;;;;;;;;;;;;27.89;37.46;99441.98;1751520;80;20246;-69
2022/07/16 06:18:53;;;;;;;;;;;;;;;27.54;38.04;99441.44;1752292;81;20149;-69
2022/07/16 06:21:20;;;;;;;;;;;;;;;27.13;38.19;99441.22;1753749;81;20169;-69
2022/07/16 06:23:46;;;;;;;;;;;;;;;26.82;39.05;99447.22;1746940;81;20180;-69
2022/07/16 06:26:16;;;;;;;;;;;;;;;26.58;39.40;99445.39;1750398;81;20625;-69
2022/07/16 06:28:43;;;;;;;;;;;;;;;26.45;37.92;99447.72;1751586;81;20137;-69
2022/07/16 06:31:10;;;;;;;;;;;;;;;26.35;38.56;99445.73;1751821;81;20092;-69
2022/07/16 06:33:36;;;;;;;;;;;;;;;26.24;38.62;99445.49;1753183;81;20436;-68
2022/07/16 06:36:05;;;;;;;;;;;;;;;26.08;37.95;99449.47;1751125;81;20260;-68
2022/07/16 06:38:32;;;;;;;;;;;;;;;25.85;38.10;99453.23;1752216;81;21131;-69
2022/07/16 06:40:58;;;;;;;;;;;;;;;25.64;38.30;99448.31;1749777;81;20134;-69
2022/07/16 06:43:25;;;;;;;;;;;;;;;25.41;38.33;99439.18;1746211;81;20173;-69
2022/07/16 06:45:51;;;;;;;;;;;;;;;25.19;38.09;99445.05;1741452;81;20200;-67
2022/07/16 06:48:18;;;;;;;;;;;;;;;25.00;38.76;99444.77;1751858;80;20440;-69
2022/07/16 06:50:45;;;;;;;;;;;;;;;24.86;38.85;99442.15;1749390;81;21154;-69
2022/07/16 06:53:12;;;;;;;;;;;;;;;24.69;39.06;99441.69;1745794;81;20137;-69
2022/07/16 06:55:39;;;;;;;;;;;;;;;24.50;39.06;99437.37;1744831;81;20161;-68
2022/07/16 06:58:06;;;;;;;;;;;;;;;24.36;39.62;99441.41;1745961;81;20199;-68
2022/07/16 07:00:33;;;;;;;;;;;;;;;24.18;39.41;99439.19;1753096;81;20133;-69
2022/07/16 07:03:00;;;;;;;;;;;;;;;24.00;40.01;99442.31;1750252;80;20872;-68
2022/07/16 07:05:26;;;;;;;;;;;;;;;23.82;38.59;99439.63;1749155;81;20141;-68
2022/07/16 07:07:53;;;;;;;;;;;;;;;23.71;38.44;99446.48;1750941;81;20137;-68
2022/07/16 07:10:21;;;;;;;;;;;;;;;23.61;38.61;99444.35;1749952;81;20413;-68
2022/07/16 07:12:47;;;;;;;;;;;;;;;23.54;39.55;99446.78;1751774;81;20149;-69
2022/07/16 07:15:13;;;;;;;;;;;;;;;23.52;39.49;99443.92;1745081;80;21120;-69
2022/07/16 07:17:41;;;;;;;;;;;;;;;23.56;39.86;99442.16;1752891;81;20133;-68
2022/07/16 07:20:11;;;;;;;;;;;;;;;23.65;38.91;99447.06;1751909;81;20137;-69
2022/07/16 07:22:37;;;;;;;;;;;;;;;23.73;38.75;99443.19;1750676;80;20188;-68
2022/07/16 07:25:06;;;;;;;;;;;;;;;23.76;38.86;99443.39;1734359;82;20162;-68
2022/07/16 07:27:33;;;;;;;;;;;;;;;23.72;38.81;99440.69;1751323;81;21278;-67
2022/07/16 07:30:00;;;;;;;;;;;;;;;23.69;38.94;99441.81;1756130;81;20168;-67
2022/07/16 07:32:26;;;;;;;;;;;;;;;23.64;39.67;99436.94;1749450;82;20480;-67
2022/07/16 07:34:53;;;;;;;;;;;;;;;23.68;39.34;99435.66;1750689;81;20145;-68
2022/07/16 07:37:19;;;;;;;;;;;;;;;23.76;39.74;99436.27;1746678;81;20428;-68
2022/07/16 07:39:45;;;;;;;;;;;;;;;23.84;39.54;99428.37;1746897;81;21129;-68
2022/07/16 07:42:12;;;;;;;;;;;;;;;23.94;39.76;99431.82;1749990;81;21079;-68
2022/07/16 07:44:39;;;;;;;;;;;;;;;24.01;39.45;99431.54;1752942;81;20148;-68
2022/07/16 07:47:05;;;;;;;;;;;;;;;24.10;39.17;99433.80;1749080;80;20157;-68
2022/07/16 07:49:32;;;;;;;;;;;;;;;24.13;38.64;99430.85;1750513;80;20117;-67
2022/07/16 07:51:59;;;;;;;;;;;;;;;24.16;38.56;99439.02;1753029;81;21122;-69
2022/07/16 07:54:25;;;;;;;;;;;;;;;24.10;38.34;99428.49;1753167;81;20121;-68
2022/07/16 07:56:51;;;;;;;;;;;;;;;24.04;38.63;99427.75;1748412;81;20447;-69
2022/07/16 07:59:18;;;;;;;;;;;;;;;24.04;36.51;99431.73;1752577;81;20076;-70
2022/07/16 08:01:44;;;;;;;;;;;;;;;24.01;36.77;99426.72;1747956;81;20503;-70
2022/07/16 08:04:11;;;;;;;;;;;;;;;24.04;35.99;99423.77;1750371;81;21137;-70
2022/07/16 08:06:37;;;;;;;;;;;;;;;24.05;35.45;99419.64;1746774;81;20436;-69
2022/07/16 08:09:05;;;;;;;;;;;;;;;24.06;35.25;99420.47;1748643;81;20149;-69
2022/07/16 08:11:31;;;;;;;;;;;;;;;24.11;35.29;99416.88;1746987;81;20158;-69
2022/07/16 08:13:57;;;;;;;;;;;;;;;24.18;35.64;99423.23;1748573;81;20137;-69
2022/07/16 08:16:24;;;;;;;;;;;;;;;24.30;35.69;99419.42;1750359;81;21235;-69
2022/07/16 08:18:51;;;;;;;;;;;;;;;24.47;35.26;99420.39;1752360;81;20445;-68
2022/07/16 08:21:17;;;;;;;;;;;;;;;24.61;35.40;99417.18;1746632;81;20145;-69
2022/07/16 08:26:30;;;;;;;;;;;;;;;24.84;33.53;99419.34;1748878;81;20225;-68
2022/07/16 08:28:56;;;;;;;;;;;;;;;24.86;33.74;99416.04;1750760;81;21791;-68
2022/07/16 08:31:22;;;;;;;;;;;;;;;24.93;33.97;99416.60;1750656;81;20460;-68
2022/07/16 08:33:49;;;;;;;;;;;;;;;25.08;33.67;99415.55;1751785;81;20168;-69
2022/07/16 08:36:16;;;;;;;;;;;;;;;25.22;33.32;99410.97;1749895;81;20157;-68
2022/07/16 08:38:43;;;;;;;;;;;;;;;25.41;33.03;99410.73;1752607;81;20151;-69
2022/07/16 08:41:10;;;;;;;;;;;;;;;25.53;32.34;99417.13;1749889;81;21103;-68
2022/07/16 08:43:37;;;;;;;;;;;;;;;25.58;31.88;99411.63;1747066;81;20493;-69
2022/07/16 08:46:04;;;;;;;;;;;;;;;25.59;31.35;99407.13;1750237;81;20173;-68
2022/07/16 08:48:32;;;;;;;;;;;;;;;25.49;31.73;99401.95;1749947;80;20145;-69
2022/07/16 08:50:58;;;;;;;;;;;;;;;25.36;31.61;99401.08;1748498;81;20219;-69
2022/07/16 08:53:25;;;;;;;;;;;;;;;25.22;31.79;99399.48;1746660;81;22136;-68
2022/07/16 08:55:52;;;;;;;;;;;;;;;25.13;31.79;99408.44;1749876;81;20133;-69
2022/07/16 08:58:19;;;;;;;;;;;;;;;25.01;31.77;99404.69;1751886;82;20165;-69
2022/07/16 09:00:47;;;;;;;;;;;;;;;24.92;32.12;99407.45;1752345;80;20626;-70
2022/07/16 09:03:15;;;;;;;;;;;;;;;24.92;32.47;99400.30;1746887;80;20158;-68
2022/07/16 09:05:43;;;;;;;;;;;;;;;25.03;32.60;99404.05;1718633;80;21195;-69
2022/07/16 09:08:11;;;;;;;;;;;;;;;25.15;31.45;99396.64;1750487;81;20432;-68
2022/07/16 09:10:39;;;;;;;;;;;;;;;25.30;31.49;99393.72;1746388;81;20141;-68
2022/07/16 09:13:06;;;;;;;;;;;;;;;25.49;31.50;99397.13;1748375;81;20449;-67
2022/07/16 09:15:37;;;;;;;;;;;;;;;25.68;30.20;99392.40;1726606;82;20196;-68
2022/07/16 09:18:19;;;;;;;;;;;;;;;25.83;29.70;99393.94;1748960;81;21154;-70
2022/07/16 09:20:54;;;;;;;;;;;;;;;25.95;29.32;99389.98;1753897;81;20165;-68
2022/07/16 09:23:24;;;;;;;;;;;;;;;26.02;28.78;99390.98;1750345;81;20145;-68
2022/07/16 09:26:03;;;;;;;;;;;;;;;25.97;29.45;99389.33;1754025;81;20145;-68
2022/07/16 09:28:45;;;;;;;;;;;;;;;25.87;29.52;99390.45;1749387;81;20145;-68
2022/07/16 09:31:37;;;;;;;;;;;;;;;25.73;29.29;99387.42;1748318;81;21057;-68
2022/07/16 09:34:07;;;;;;;;;;;;;;;25.62;29.96;99387.71;1751778;81;20160;-69
2022/07/16 09:36:35;;;;;;;;;;;;;;;25.52;30.75;99390.16;1750355;81;20149;-69
2022/07/16 09:39:01;;;;;;;;;;;;;;;25.39;29.24;99391.91;1748627;81;20472;-69
2022/07/16 09:41:27;;;;;;;;;;;;;;;25.35;28.95;99389.25;1748650;81;20203;-69
2022/07/16 09:43:55;;;;;;;;;;;;;;;25.46;28.38;99382.80;1736220;81;21947;-69
2022/07/16 09:46:23;;;;;;;;;;;;;;;25.64;28.07;99379.56;1750829;81;20145;-68
2022/07/16 09:48:50;;;;;;;;;;;;;;;25.85;28.65;99379.95;1747793;81;20137;-69
2022/07/16 09:51:20;;;;;;;;;;;;;;;26.11;28.71;99377.67;1749404;81;20153;-68
2022/07/16 09:53:51;;;;;;;;;;;;;;;26.34;28.83;99373.39;1748010;81;20216;-68
2022/07/16 09:56:23;;;;;;;;;;;;;;;26.59;29.38;99376.86;1748108;81;21103;-69
2022/07/16 09:58:54;;;;;;;;;;;;;;;26.70;28.09;99372.03;1749866;81;20172;-69
2022/07/16 10:01:21;;;;;;;;;;;;;;;26.78;27.29;99371.70;1743044;81;20304;-68
2022/07/16 10:03:48;;;;;;;;;;;;;;;26.65;27.88;99375.70;1738906;81;20173;-69
2022/07/16 10:06:17;;;;;;;;;;;;;;;26.59;28.88;99372.36;1750442;81;20169;-69
2022/07/16 10:08:43;;;;;;;;;;;;;;;26.61;28.94;99378.36;1748211;81;21203;-68
2022/07/16 10:11:10;;;;;;;;;;;;;;;26.67;28.57;99371.03;1751710;81;20431;-69
2022/07/16 10:13:40;;;;;;;;;;;;;;;26.76;28.64;99367.37;1748964;81;20227;-68
2022/07/16 10:16:06;;;;;;;;;;;;;;;26.86;28.35;99365.83;1751399;81;20737;-68
2022/07/16 10:18:36;;;;;;;;;;;;;;;26.96;28.80;99371.86;1750699;81;20173;-69
2022/07/16 10:21:14;;;;;;;;;;;;;;;27.01;28.16;99364.65;1749339;81;21148;-69
2022/07/16 10:23:43;;;;;;;;;;;;;;;26.98;27.94;99358.31;1750214;81;20142;-69
2022/07/16 10:26:17;;;;;;;;;;;;;;;26.92;28.65;99349.65;1748342;81;20161;-70
2022/07/16 10:28:49;;;;;;;;;;;;;;;26.92;27.72;99346.48;1750731;81;20165;-69
2022/07/16 10:31:39;;;;;;;;;;;;;;;26.96;27.86;99344.33;1748763;81;20154;-68
2022/07/16 10:34:19;;;;;;;;;;;;;;;27.09;27.97;99343.28;1748367;81;21237;-69
2022/07/16 10:36:52;;;;;;;;;;;;;;;27.28;27.54;99341.54;1750964;81;20429;-69
2022/07/16 10:39:21;;;;;;;;;;;;;;;27.42;26.97;99341.30;1747274;81;20148;-69
2022/07/16 10:41:49;;;;;;;;;;;;;;;27.50;27.35;99337.27;1750263;81;20160;-69
2022/07/16 10:44:15;;;;;;;;;;;;;;;27.57;26.44;99334.27;1747031;81;20181;-69
2022/07/16 10:46:57;;;;;;;;;;;;;;;27.60;26.52;99330.38;1746646;81;21790;-68
2022/07/16 10:49:27;;;;;;;;;;;;;;;27.61;26.20;99338.73;1749889;81;20220;-68
2022/07/16 10:52:03;;;;;;;;;;;;;;;27.52;26.53;99339.27;1748953;81;20137;-69
2022/07/16 10:54:30;;;;;;;;;;;;;;;27.41;26.71;99336.46;1749318;81;20584;-69
2022/07/16 10:56:58;;;;;;;;;;;;;;;27.30;26.60;99333.36;1745767;81;20562;-69
2022/07/16 10:59:28;;;;;;;;;;;;;;;27.20;27.45;99334.05;1750487;81;21128;-69
2022/07/16 11:01:56;;;;;;;;;;;;;;;27.04;27.78;99330.95;1749598;80;20144;-69
2022/07/16 11:04:31;;;;;;;;;;;;;;;26.93;27.90;99330.80;1747002;81;20191;-69
2022/07/16 11:07:00;;;;;;;;;;;;;;;26.96;28.28;99331.83;1750962;81;20172;-69
2022/07/16 11:09:32;;;;;;;;;;;;;;;26.98;27.71;99332.45;1749285;81;20137;-69
2022/07/16 11:12:16;;;;;;;;;;;;;;;26.96;28.00;99329.66;1747883;81;21156;-69
2022/07/16 11:14:47;;;;;;;;;;;;;;;27.10;27.85;99333.77;1751558;81;20165;-69
2022/07/16 11:17:14;;;;;;;;;;;;;;;27.31;27.44;99330.52;1750312;81;20200;-67
2022/07/16 11:19:42;;;;;;;;;;;;;;;27.49;27.04;99326.75;1750871;81;20166;-67
2022/07/16 11:22:08;;;;;;;;;;;;;;;27.66;26.91;99319.00;1750564;81;20173;-68
2022/07/16 11:24:36;;;;;;;;;;;;;;;27.78;26.95;99325.09;1749268;81;21127;-68
2022/07/16 11:27:03;;;;;;;;;;;;;;;27.82;26.87;99325.57;1748928;81;20153;-69
2022/07/16 11:29:30;;;;;;;;;;;;;;;27.82;27.82;99320.73;1701656;81;20144;-68
2022/07/16 11:31:58;;;;;;;;;;;;;;;27.89;28.23;99317.69;1745871;81;20172;-69
2022/07/16 11:34:25;;;;;;;;;;;;;;;27.94;27.78;99320.16;1745756;81;20429;-68
2022/07/16 11:36:53;;;;;;;;;;;;;;;27.96;27.34;99320.81;1746981;82;21146;-68
2022/07/16 11:39:22;;;;;;;;;;;;;;;28.02;27.74;99318.75;1749506;81;20424;-69
2022/07/16 11:41:51;;;;;;;;;;;;;;;28.18;28.08;99318.31;1745843;81;20199;-69
2022/07/16 11:44:26;;;;;;;;;;;;;;;28.35;27.95;99319.86;1749998;81;20544;-69
2022/07/16 11:46:57;;;;;;;;;;;;;;;28.49;27.79;99313.70;1750792;80;20145;-68
2022/07/16 11:49:26;;;;;;;;;;;;;;;28.65;27.51;99318.05;1750923;81;21823;-68
2022/07/16 11:51:56;;;;;;;;;;;;;;;28.70;27.12;99322.36;1752501;81;20161;-68
2022/07/16 11:54:23;;;;;;;;;;;;;;;28.64;27.20;99322.58;1749604;81;20161;-69
2022/07/16 11:56:50;;;;;;;;;;;;;;;28.52;27.25;99320.03;1752716;81;20137;-69
2022/07/16 11:59:27;;;;;;;;;;;;;;;28.40;27.16;99320.13;1749280;81;20144;-68
2022/07/16 12:02:01;;;;;;;;;;;;;;;28.34;27.07;99316.86;1750403;81;21851;-68
2022/07/16 12:04:40;;;;;;;;;;;;;;;28.32;26.78;99309.52;1747464;81;20172;-69
2022/07/16 12:07:10;;;;;;;;;;;;;;;28.30;27.62;99310.20;1752047;81;20205;-68
2022/07/16 12:09:39;;;;;;;;;;;;;;;28.28;27.12;99308.22;1752865;81;20423;-68
2022/07/16 12:12:18;;;;;;;;;;;;;;;28.26;27.59;99304.89;1751042;81;20168;-68
2022/07/16 12:14:49;;;;;;;;;;;;;;;28.22;27.49;99299.56;1748248;81;21115;-70
2022/07/16 12:17:31;;;;;;;;;;;;;;;28.24;28.31;99311.75;1747181;81;20372;-69
2022/07/16 12:20:14;;;;;;;;;;;;;;;28.08;27.91;99306.51;1748712;81;20141;-69
2022/07/16 12:23:05;;;;;;;;;;;;;;;27.89;28.58;99290.45;1750492;81;20161;-69
2022/07/16 12:25:45;;;;;;;;;;;;;;;27.91;28.67;99292.95;1748755;81;20148;-67
2022/07/16 12:28:21;;;;;;;;;;;;;;;27.83;28.65;99297.01;1747513;81;21230;-67
2022/07/16 12:30:55;;;;;;;;;;;;;;;27.67;28.55;99295.28;1750177;81;20154;-68
2022/07/16 12:33:24;;;;;;;;;;;;;;;27.61;28.75;99292.80;1747291;81;20138;-68
2022/07/16 12:35:57;;;;;;;;;;;;;;;27.63;28.66;99292.63;1750911;81;20172;-68
2022/07/16 12:38:50;;;;;;;;;;;;;;;27.65;29.07;99287.44;1751446;81;20130;-68
2022/07/16 12:41:32;;;;;;;;;;;;;;;27.74;29.10;99294.41;1751697;81;21149;-67
2022/07/16 12:44:01;;;;;;;;;;;;;;;27.80;28.66;99292.84;1750265;81;20149;-68
2022/07/16 12:46:30;;;;;;;;;;;;;;;27.81;28.63;99283.82;1751766;81;20161;-69
2022/07/16 12:48:58;;;;;;;;;;;;;;;27.75;28.41;99288.56;1751000;81;20145;-69
2022/07/16 12:51:27;;;;;;;;;;;;;;;27.62;28.22;99290.97;1749544;81;20160;-68
2022/07/16 12:53:54;;;;;;;;;;;;;;;27.56;27.43;99299.17;1748181;81;21102;-69
2022/07/16 12:59:06;;;;;;;;;;;;;;;27.57;27.10;99290.66;1754299;81;20140;-69
2022/07/16 13:01:33;;;;;;;;;;;;;;;27.60;26.69;99296.48;1750857;80;20141;-69